sensor_id;sensor_type;location;lat;lon;timestamp;pressure;altitude;pressure_sealevel;temperature;humidity
41800;BME280;27468;47.460;19.034;2022-09-27T00:02:14;99192.97;;;12.60;98.26
41800;BME280;27468;47.460;19.034;2022-09-27T00:04:39;99180.09;;;12.52;98.40
41800;BME280;27468;47.460;19.034;2022-09-27T00:07:05;99169.88;;;12.44;99.09
41800;BME280;27468;47.460;19.034;2022-09-27T00:09:31;99165.03;;;12.35;99.32
41800;BME280;27468;47.460;19.034;2022-09-27T00:11:56;99198.34;;;12.58;99.42
41800;BME280;27468;47.460;19.034;2022-09-27T00:14:22;99206.63;;;12.69;99.43
41800;BME280;27468;47.460;19.034;2022-09-27T00:16:47;99120.81;;;12.20;99.50
41800;BME280;27468;47.460;19.034;2022-09-27T00:19:18;99185.97;;;12.59;99.66
41800;BME280;27468;47.460;19.034;2022-09-27T00:21:44;99164.59;;;12.44;99.64
41800;BME280;27468;47.460;19.034;2022-09-27T00:24:12;99185.81;;;12.62;99.88
41800;BME280;27468;47.460;19.034;2022-09-27T00:26:38;99162.47;;;12.52;99.71
41800;BME280;27468;47.460;19.034;2022-09-27T00:29:03;99182.91;;;12.68;99.83
41800;BME280;27468;47.460;19.034;2022-09-27T00:31:29;99187.00;;;12.73;99.80
41800;BME280;27468;47.460;19.034;2022-09-27T00:33:59;99180.00;;;12.72;99.87
41800;BME280;27468;47.460;19.034;2022-09-27T00:36:26;99194.09;;;12.73;99.75
41800;BME280;27468;47.460;19.034;2022-09-27T00:38:52;99165.16;;;12.70;99.76
41800;BME280;27468;47.460;19.034;2022-09-27T00:41:27;99170.53;;;12.68;99.56
41800;BME280;27468;47.460;19.034;2022-09-27T00:43:58;99164.53;;;12.65;99.55
41800;BME280;27468;47.460;19.034;2022-09-27T00:49:05;99129.47;;;12.42;99.73
41800;BME280;27468;47.460;19.034;2022-09-27T00:51:33;99158.38;;;12.64;100.00
41800;BME280;27468;47.460;19.034;2022-09-27T00:54:03;99148.88;;;12.60;100.00
41800;BME280;27468;47.460;19.034;2022-09-27T00:56:30;99162.03;;;12.62;100.00
41800;BME280;27468;47.460;19.034;2022-09-27T00:59:05;99168.66;;;12.70;100.00
41800;BME280;27468;47.460;19.034;2022-09-27T01:01:33;99100.88;;;12.32;100.00
41800;BME280;27468;47.460;19.034;2022-09-27T01:06:26;99135.38;;;12.47;100.00
41800;BME280;27468;47.460;19.034;2022-09-27T01:08:51;99113.66;;;12.41;99.76
41800;BME280;27468;47.460;19.034;2022-09-27T01:14:23;99145.16;;;12.64;99.40
41800;BME280;27468;47.460;19.034;2022-09-27T01:22:36;99061.94;;;11.99;99.22
41800;BME280;27468;47.460;19.034;2022-09-27T01:30:34;99097.81;;;12.22;99.41
41800;BME280;27468;47.460;19.034;2022-09-27T01:33:16;99097.16;;;12.17;99.48
41800;BME280;27468;47.460;19.034;2022-09-27T01:36:04;99135.38;;;12.47;100.00
41800;BME280;27468;47.460;19.034;2022-09-27T01:44:03;99116.81;;;12.49;100.00
41800;BME280;27468;47.460;19.034;2022-09-27T01:46:41;99060.97;;;12.19;100.00
41800;BME280;27468;47.460;19.034;2022-09-27T01:49:15;99052.25;;;12.17;100.00
41800;BME280;27468;47.460;19.034;2022-09-27T01:51:46;99054.81;;;12.18;100.00
41800;BME280;27468;47.460;19.034;2022-09-27T01:54:18;99053.03;;;12.19;100.00
41800;BME280;27468;47.460;19.034;2022-09-27T01:56:49;99095.88;;;12.44;100.00
41800;BME280;27468;47.460;19.034;2022-09-27T01:59:23;99101.09;;;12.46;99.95
41800;BME280;27468;47.460;19.034;2022-09-27T02:01:55;99067.88;;;12.21;99.82
41800;BME280;27468;47.460;19.034;2022-09-27T02:04:29;99073.97;;;12.23;99.55
41800;BME280;27468;47.460;19.034;2022-09-27T02:07:00;99022.94;;;11.85;98.94
41800;BME280;27468;47.460;19.034;2022-09-27T02:09:30;99067.63;;;12.09;98.87
41800;BME280;27468;47.460;19.034;2022-09-27T02:12:02;99029.53;;;11.75;98.59
41800;BME280;27468;47.460;19.034;2022-09-27T02:17:24;99093.47;;;12.02;98.34
41800;BME280;27468;47.460;19.034;2022-09-27T02:25:24;99026.69;;;11.42;98.20
41800;BME280;27468;47.460;19.034;2022-09-27T02:30:16;99087.91;;;11.69;97.99
41800;BME280;27468;47.460;19.034;2022-09-27T02:32:42;99103.59;;;11.72;98.06
41800;BME280;27468;47.460;19.034;2022-09-27T02:35:23;99060.63;;;11.50;98.36
41800;BME280;27468;47.460;19.034;2022-09-27T02:37:50;99085.53;;;11.63;98.67
41800;BME280;27468;47.460;19.034;2022-09-27T02:40:17;99081.75;;;11.50;98.70
41800;BME280;27468;47.460;19.034;2022-09-27T02:42:43;99060.97;;;11.42;98.74
41800;BME280;27468;47.460;19.034;2022-09-27T02:45:10;99044.63;;;11.34;98.76
41800;BME280;27468;47.460;19.034;2022-09-27T02:58:44;99075.09;;;11.41;98.20
41800;BME280;27468;47.460;19.034;2022-09-27T03:01:18;99056.25;;;11.30;98.23
41800;BME280;27468;47.460;19.034;2022-09-27T03:04:19;99065.59;;;11.37;98.63
41800;BME280;27468;47.460;19.034;2022-09-27T03:06:48;99029.06;;;11.08;98.67
41800;BME280;27468;47.460;19.034;2022-09-27T03:09:20;99017.06;;;11.01;98.53
41800;BME280;27468;47.460;19.034;2022-09-27T03:11:46;99003.66;;;10.86;98.84
41800;BME280;27468;47.460;19.034;2022-09-27T03:14:11;99052.47;;;11.15;98.73
41800;BME280;27468;47.460;19.034;2022-09-27T03:16:37;99044.09;;;11.06;99.03
41800;BME280;27468;47.460;19.034;2022-09-27T03:19:02;99078.13;;;11.12;98.89
41800;BME280;27468;47.460;19.034;2022-09-27T03:21:28;99000.41;;;10.80;98.75
41800;BME280;27468;47.460;19.034;2022-09-27T03:23:53;99044.97;;;11.06;98.85
41800;BME280;27468;47.460;19.034;2022-09-27T03:26:19;99035.66;;;10.98;98.40
41800;BME280;27468;47.460;19.034;2022-09-27T03:28:45;99039.25;;;10.97;98.27
41800;BME280;27468;47.460;19.034;2022-09-27T03:31:11;99052.28;;;11.00;98.69
41800;BME280;27468;47.460;19.034;2022-09-27T03:33:37;99003.56;;;10.68;98.93
41800;BME280;27468;47.460;19.034;2022-09-27T03:36:02;99005.16;;;10.72;99.70
41800;BME280;27468;47.460;19.034;2022-09-27T03:38:28;99064.03;;;11.13;100.00
41800;BME280;27468;47.460;19.034;2022-09-27T03:40:54;99057.16;;;11.09;100.00
41800;BME280;27468;47.460;19.034;2022-09-27T03:43:19;99029.34;;;11.02;100.00
41800;BME280;27468;47.460;19.034;2022-09-27T03:45:45;98983.41;;;10.87;100.00
41800;BME280;27468;47.460;19.034;2022-09-27T03:48:11;99045.56;;;11.33;100.00
41800;BME280;27468;47.460;19.034;2022-09-27T03:50:36;98991.34;;;11.06;100.00
41800;BME280;27468;47.460;19.034;2022-09-27T03:53:02;98993.25;;;11.22;100.00
41800;BME280;27468;47.460;19.034;2022-09-27T03:55:27;99054.06;;;11.58;100.00
41800;BME280;27468;47.460;19.034;2022-09-27T03:57:53;98971.63;;;11.14;100.00
41800;BME280;27468;47.460;19.034;2022-09-27T04:00:18;99029.69;;;11.53;100.00
41800;BME280;27468;47.460;19.034;2022-09-27T04:02:44;99048.16;;;11.72;100.00
41800;BME280;27468;47.460;19.034;2022-09-27T04:05:10;99001.84;;;11.46;100.00
41800;BME280;27468;47.460;19.034;2022-09-27T04:07:35;99029.09;;;11.66;100.00
41800;BME280;27468;47.460;19.034;2022-09-27T04:10:02;99021.75;;;11.72;100.00
41800;BME280;27468;47.460;19.034;2022-09-27T04:12:28;98960.06;;;11.37;100.00
41800;BME280;27468;47.460;19.034;2022-09-27T04:14:54;99051.56;;;11.95;100.00
41800;BME280;27468;47.460;19.034;2022-09-27T04:17:19;99012.78;;;11.76;100.00
41800;BME280;27468;47.460;19.034;2022-09-27T04:19:45;99026.94;;;11.94;100.00
41800;BME280;27468;47.460;19.034;2022-09-27T04:22:10;98988.22;;;11.74;100.00
41800;BME280;27468;47.460;19.034;2022-09-27T04:24:37;99025.72;;;12.01;100.00
41800;BME280;27468;47.460;19.034;2022-09-27T04:27:03;99040.28;;;12.10;100.00
41800;BME280;27468;47.460;19.034;2022-09-27T04:29:29;99047.22;;;12.12;100.00
41800;BME280;27468;47.460;19.034;2022-09-27T04:31:54;99008.88;;;12.04;100.00
41800;BME280;27468;47.460;19.034;2022-09-27T04:34:20;99027.41;;;12.21;100.00
41800;BME280;27468;47.460;19.034;2022-09-27T04:37:05;98955.22;;;11.84;100.00
41800;BME280;27468;47.460;19.034;2022-09-27T04:39:32;98971.41;;;11.96;100.00
41800;BME280;27468;47.460;19.034;2022-09-27T04:41:57;99009.84;;;12.20;100.00
41800;BME280;27468;47.460;19.034;2022-09-27T04:44:23;98950.34;;;11.94;100.00
41800;BME280;27468;47.460;19.034;2022-09-27T04:46:48;98958.63;;;12.05;100.00
41800;BME280;27468;47.460;19.034;2022-09-27T04:49:14;98963.75;;;12.08;100.00
41800;BME280;27468;47.460;19.034;2022-09-27T04:55:00;99003.66;;;12.38;100.00
41800;BME280;27468;47.460;19.034;2022-09-27T04:57:25;98970.13;;;12.21;100.00
41800;BME280;27468;47.460;19.034;2022-09-27T04:59:51;98998.06;;;12.44;100.00
41800;BME280;27468;47.460;19.034;2022-09-27T05:02:16;98966.03;;;12.33;100.00
41800;BME280;27468;47.460;19.034;2022-09-27T05:04:42;98996.53;;;12.57;100.00
41800;BME280;27468;47.460;19.034;2022-09-27T05:07:08;98962.16;;;12.40;100.00
41800;BME280;27468;47.460;19.034;2022-09-27T05:09:33;98959.22;;;12.46;100.00
41800;BME280;27468;47.460;19.034;2022-09-27T05:11:59;98947.94;;;12.43;100.00
41800;BME280;27468;47.460;19.034;2022-09-27T05:14:25;98961.41;;;12.55;100.00
41800;BME280;27468;47.460;19.034;2022-09-27T05:16:52;98929.81;;;12.35;100.00
41800;BME280;27468;47.460;19.034;2022-09-27T05:19:18;98966.44;;;12.60;100.00
41800;BME280;27468;47.460;19.034;2022-09-27T05:21:43;98981.06;;;12.67;100.00
41800;BME280;27468;47.460;19.034;2022-09-27T05:24:09;98902.06;;;12.27;100.00
41800;BME280;27468;47.460;19.034;2022-09-27T05:26:34;98981.97;;;12.83;100.00
41800;BME280;27468;47.460;19.034;2022-09-27T05:29:01;98962.69;;;12.81;100.00
41800;BME280;27468;47.460;19.034;2022-09-27T05:31:26;98948.38;;;12.85;100.00
41800;BME280;27468;47.460;19.034;2022-09-27T05:33:52;98914.28;;;12.64;100.00
41800;BME280;27468;47.460;19.034;2022-09-27T05:36:18;98926.56;;;12.65;100.00
41800;BME280;27468;47.460;19.034;2022-09-27T05:38:43;98932.47;;;12.70;100.00
41800;BME280;27468;47.460;19.034;2022-09-27T05:41:09;98974.44;;;12.93;100.00
41800;BME280;27468;47.460;19.034;2022-09-27T05:43:34;98922.75;;;12.70;100.00
41800;BME280;27468;47.460;19.034;2022-09-27T05:46:00;98928.03;;;12.70;100.00
41800;BME280;27468;47.460;19.034;2022-09-27T05:48:26;98897.78;;;12.59;100.00
41800;BME280;27468;47.460;19.034;2022-09-27T05:50:52;98958.47;;;12.95;100.00
41800;BME280;27468;47.460;19.034;2022-09-27T05:53:18;98919.25;;;12.70;100.00
41800;BME280;27468;47.460;19.034;2022-09-27T05:55:44;98971.31;;;13.02;100.00
41800;BME280;27468;47.460;19.034;2022-09-27T05:58:10;98969.97;;;13.11;100.00
41800;BME280;27468;47.460;19.034;2022-09-27T06:00:38;98940.97;;;12.92;100.00
41800;BME280;27468;47.460;19.034;2022-09-27T06:03:04;98917.94;;;12.61;100.00
41800;BME280;27468;47.460;19.034;2022-09-27T06:05:35;98934.59;;;12.79;100.00
41800;BME280;27468;47.460;19.034;2022-09-27T06:08:04;98941.75;;;12.94;100.00
41800;BME280;27468;47.460;19.034;2022-09-27T06:10:31;98988.91;;;13.20;100.00
41800;BME280;27468;47.460;19.034;2022-09-27T06:13:00;98887.16;;;12.76;100.00
41800;BME280;27468;47.460;19.034;2022-09-27T06:15:27;98929.06;;;13.01;100.00
41800;BME280;27468;47.460;19.034;2022-09-27T06:17:53;98976.31;;;13.41;100.00
41800;BME280;27468;47.460;19.034;2022-09-27T06:20:18;98966.25;;;13.48;100.00
41800;BME280;27468;47.460;19.034;2022-09-27T06:22:45;98933.50;;;13.33;100.00
41800;BME280;27468;47.460;19.034;2022-09-27T06:25:10;98961.38;;;13.56;100.00
41800;BME280;27468;47.460;19.034;2022-09-27T06:27:36;98944.03;;;13.50;100.00
41800;BME280;27468;47.460;19.034;2022-09-27T06:30:03;98962.94;;;13.76;100.00
41800;BME280;27468;47.460;19.034;2022-09-27T06:32:28;98962.34;;;13.71;100.00
41800;BME280;27468;47.460;19.034;2022-09-27T06:34:54;98929.97;;;13.66;100.00
41800;BME280;27468;47.460;19.034;2022-09-27T06:37:19;98942.09;;;13.85;100.00
41800;BME280;27468;47.460;19.034;2022-09-27T06:39:49;98976.00;;;14.10;100.00
41800;BME280;27468;47.460;19.034;2022-09-27T06:42:16;98909.47;;;13.85;100.00
41800;BME280;27468;47.460;19.034;2022-09-27T06:44:42;98938.38;;;14.04;100.00
41800;BME280;27468;47.460;19.034;2022-09-27T06:47:08;98894.13;;;13.90;100.00
41800;BME280;27468;47.460;19.034;2022-09-27T06:49:33;98887.72;;;13.94;100.00
41800;BME280;27468;47.460;19.034;2022-09-27T06:51:59;98902.56;;;14.12;99.29
41800;BME280;27468;47.460;19.034;2022-09-27T06:54:24;98900.91;;;14.26;99.41
41800;BME280;27468;47.460;19.034;2022-09-27T06:56:50;98884.47;;;14.35;98.74
41800;BME280;27468;47.460;19.034;2022-09-27T06:59:15;98892.34;;;14.36;97.92
41800;BME280;27468;47.460;19.034;2022-09-27T07:01:59;98963.13;;;14.80;96.70
41800;BME280;27468;47.460;19.034;2022-09-27T07:04:26;98939.44;;;14.77;96.00
41800;BME280;27468;47.460;19.034;2022-09-27T07:06:51;98954.13;;;14.82;95.22
41800;BME280;27468;47.460;19.034;2022-09-27T07:09:17;98971.03;;;14.96;95.03
41800;BME280;27468;47.460;19.034;2022-09-27T07:11:43;98950.25;;;14.88;94.41
41800;BME280;27468;47.460;19.034;2022-09-27T07:14:09;98941.81;;;14.81;93.66
41800;BME280;27468;47.460;19.034;2022-09-27T07:16:35;98971.69;;;14.99;92.67
41800;BME280;27468;47.460;19.034;2022-09-27T07:19:01;98940.88;;;14.82;92.16
41800;BME280;27468;47.460;19.034;2022-09-27T07:21:26;98909.66;;;14.72;92.16
41800;BME280;27468;47.460;19.034;2022-09-27T07:23:51;98973.31;;;15.16;91.57
41800;BME280;27468;47.460;19.034;2022-09-27T07:26:18;98982.06;;;15.32;91.52
41800;BME280;27468;47.460;19.034;2022-09-27T07:28:43;98943.63;;;15.09;90.82
41800;BME280;27468;47.460;19.034;2022-09-27T07:31:11;98973.25;;;15.46;89.90
41800;BME280;27468;47.460;19.034;2022-09-27T07:33:37;98972.41;;;15.60;89.10
41800;BME280;27468;47.460;19.034;2022-09-27T07:36:07;98909.31;;;15.35;87.85
41800;BME280;27468;47.460;19.034;2022-09-27T07:38:33;98907.41;;;15.37;87.30
41800;BME280;27468;47.460;19.034;2022-09-27T07:41:04;98884.38;;;15.37;86.79
41800;BME280;27468;47.460;19.034;2022-09-27T07:43:30;98907.00;;;15.71;86.78
41800;BME280;27468;47.460;19.034;2022-09-27T07:45:56;98882.31;;;15.69;85.97
41800;BME280;27468;47.460;19.034;2022-09-27T07:48:22;98904.84;;;15.91;85.27
41800;BME280;27468;47.460;19.034;2022-09-27T07:50:47;98902.97;;;15.93;84.12
41800;BME280;27468;47.460;19.034;2022-09-27T07:53:13;98932.25;;;16.05;82.06
41800;BME280;27468;47.460;19.034;2022-09-27T07:55:39;98926.81;;;15.80;81.95
41800;BME280;27468;47.460;19.034;2022-09-27T07:58:10;98963.31;;;16.05;82.75
41800;BME280;27468;47.460;19.034;2022-09-27T08:00:36;98950.00;;;16.05;82.58
41800;BME280;27468;47.460;19.034;2022-09-27T08:03:07;98927.28;;;15.87;82.72
41800;BME280;27468;47.460;19.034;2022-09-27T08:05:34;98969.41;;;16.19;83.09
41800;BME280;27468;47.460;19.034;2022-09-27T08:08:02;98928.53;;;16.08;82.55
41800;BME280;27468;47.460;19.034;2022-09-27T08:10:29;98903.97;;;16.04;82.19
41800;BME280;27468;47.460;19.034;2022-09-27T08:13:04;98897.34;;;15.97;81.93
41800;BME280;27468;47.460;19.034;2022-09-27T08:15:31;98957.63;;;16.24;82.29
41800;BME280;27468;47.460;19.034;2022-09-27T08:17:57;98894.22;;;15.91;82.12
41800;BME280;27468;47.460;19.034;2022-09-27T08:20:22;98933.38;;;16.15;82.45
41800;BME280;27468;47.460;19.034;2022-09-27T08:22:48;98948.66;;;16.12;81.91
41800;BME280;27468;47.460;19.034;2022-09-27T08:25:14;98946.31;;;16.07;82.41
41800;BME280;27468;47.460;19.034;2022-09-27T08:27:40;98966.13;;;16.16;82.47
41800;BME280;27468;47.460;19.034;2022-09-27T08:30:07;98923.31;;;15.79;82.75
41800;BME280;27468;47.460;19.034;2022-09-27T08:32:33;98958.53;;;16.10;82.91
41800;BME280;27468;47.460;19.034;2022-09-27T08:34:59;98940.13;;;16.07;82.81
41800;BME280;27468;47.460;19.034;2022-09-27T08:37:24;98970.31;;;16.33;82.86
41800;BME280;27468;47.460;19.034;2022-09-27T08:39:50;98932.28;;;16.18;82.44
41800;BME280;27468;47.460;19.034;2022-09-27T08:42:39;98946.94;;;16.38;82.16
41800;BME280;27468;47.460;19.034;2022-09-27T08:45:21;98949.03;;;16.33;82.50
41800;BME280;27468;47.460;19.034;2022-09-27T08:47:53;98952.34;;;16.36;82.11
41800;BME280;27468;47.460;19.034;2022-09-27T08:50:37;98939.81;;;16.38;81.93
41800;BME280;27468;47.460;19.034;2022-09-27T08:53:26;98947.06;;;16.49;81.28
41800;BME280;27468;47.460;19.034;2022-09-27T08:55:56;98951.97;;;16.55;81.71
41800;BME280;27468;47.460;19.034;2022-09-27T08:58:30;98965.25;;;16.42;81.89
41800;BME280;27468;47.460;19.034;2022-09-27T09:00:59;98911.84;;;16.06;81.96
41800;BME280;27468;47.460;19.034;2022-09-27T09:03:29;98956.16;;;16.32;82.40
41800;BME280;27468;47.460;19.034;2022-09-27T09:11:26;98951.75;;;16.18;83.18
41800;BME280;27468;47.460;19.034;2022-09-27T09:14:25;98912.34;;;15.98;83.38
41800;BME280;27468;47.460;19.034;2022-09-27T09:17:03;98922.56;;;16.04;84.13
41800;BME280;27468;47.460;19.034;2022-09-27T09:19:56;98929.31;;;16.10;85.05
41800;BME280;27468;47.460;19.034;2022-09-27T09:28:11;98910.16;;;16.17;86.42
41800;BME280;27468;47.460;19.034;2022-09-27T09:33:26;98892.94;;;16.10;88.43
41800;BME280;27468;47.460;19.034;2022-09-27T09:38:51;98839.22;;;16.05;88.62
41800;BME280;27468;47.460;19.034;2022-09-27T09:41:23;98909.31;;;16.57;88.72
41800;BME280;27468;47.460;19.034;2022-09-27T09:46:40;98858.00;;;16.42;88.53
41800;BME280;27468;47.460;19.034;2022-09-27T09:49:27;98903.59;;;16.75;88.47
41800;BME280;27468;47.460;19.034;2022-09-27T09:51:58;98848.75;;;16.47;88.35
41800;BME280;27468;47.460;19.034;2022-09-27T09:54:30;98894.66;;;16.76;88.35
41800;BME280;27468;47.460;19.034;2022-09-27T09:59:36;98874.56;;;16.72;88.36
41800;BME280;27468;47.460;19.034;2022-09-27T10:04:47;98843.75;;;16.56;88.27
41800;BME280;27468;47.460;19.034;2022-09-27T10:07:15;98868.69;;;16.80;88.43
41800;BME280;27468;47.460;19.034;2022-09-27T10:09:43;98858.34;;;16.75;88.55
41800;BME280;27468;47.460;19.034;2022-09-27T10:12:09;98889.13;;;16.92;88.23
41800;BME280;27468;47.460;19.034;2022-09-27T10:14:35;98842.63;;;16.72;88.03
41800;BME280;27468;47.460;19.034;2022-09-27T10:17:03;98856.44;;;16.90;87.81
41800;BME280;27468;47.460;19.034;2022-09-27T10:19:31;98871.47;;;16.91;87.96
41800;BME280;27468;47.460;19.034;2022-09-27T10:22:15;98875.72;;;16.94;87.82
41800;BME280;27468;47.460;19.034;2022-09-27T10:24:56;98863.25;;;16.94;87.78
41800;BME280;27468;47.460;19.034;2022-09-27T10:27:23;98812.38;;;16.61;87.89
41800;BME280;27468;47.460;19.034;2022-09-27T10:29:56;98802.56;;;16.61;87.80
41800;BME280;27468;47.460;19.034;2022-09-27T10:32:27;98819.63;;;16.71;87.90
41800;BME280;27468;47.460;19.034;2022-09-27T10:34:56;98798.94;;;16.62;88.28
41800;BME280;27468;47.460;19.034;2022-09-27T10:37:41;98793.25;;;16.68;88.49
41800;BME280;27468;47.460;19.034;2022-09-27T10:40:29;98851.22;;;17.01;88.59
41800;BME280;27468;47.460;19.034;2022-09-27T10:42:55;98785.69;;;16.75;88.57
41800;BME280;27468;47.460;19.034;2022-09-27T10:45:25;98806.72;;;16.91;88.31
41800;BME280;27468;47.460;19.034;2022-09-27T10:47:51;98829.59;;;17.06;88.12
41800;BME280;27468;47.460;19.034;2022-09-27T10:50:25;98827.69;;;17.08;88.12
41800;BME280;27468;47.460;19.034;2022-09-27T10:53:06;98842.56;;;17.23;87.77
41800;BME280;27468;47.460;19.034;2022-09-27T10:55:37;98824.59;;;17.01;87.39
41800;BME280;27468;47.460;19.034;2022-09-27T10:58:04;98811.59;;;16.97;87.55
41800;BME280;27468;47.460;19.034;2022-09-27T11:00:32;98834.91;;;17.06;87.54
41800;BME280;27468;47.460;19.034;2022-09-27T11:03:02;98803.19;;;16.90;87.53
41800;BME280;27468;47.460;19.034;2022-09-27T11:05:33;98786.91;;;16.82;87.78
41800;BME280;27468;47.460;19.034;2022-09-27T11:08:37;98779.34;;;16.89;87.83
41800;BME280;27468;47.460;19.034;2022-09-27T11:11:11;98821.78;;;17.28;87.93
41800;BME280;27468;47.460;19.034;2022-09-27T11:13:56;98815.72;;;17.26;88.05
41800;BME280;27468;47.460;19.034;2022-09-27T11:19:34;98812.88;;;17.40;87.22
41800;BME280;27468;47.460;19.034;2022-09-27T11:30:07;98803.59;;;17.46;87.36
41800;BME280;27468;47.460;19.034;2022-09-27T11:39:01;98751.41;;;17.67;85.39
41800;BME280;27468;47.460;19.034;2022-09-27T11:40:56;98755.59;;;17.83;85.11
41800;BME280;27468;47.460;19.034;2022-09-27T11:53:58;98728.72;;;17.62;84.14
41800;BME280;27468;47.460;19.034;2022-09-27T11:56:36;98762.75;;;17.82;84.55
41800;BME280;27468;47.460;19.034;2022-09-27T12:02:18;98758.66;;;17.89;84.65
41800;BME280;27468;47.460;19.034;2022-09-27T12:05:01;98718.69;;;17.65;84.71
41800;BME280;27468;47.460;19.034;2022-09-27T12:07:36;98714.09;;;17.67;84.71
41800;BME280;27468;47.460;19.034;2022-09-27T12:10:12;98743.53;;;18.01;84.94
41800;BME280;27468;47.460;19.034;2022-09-27T12:12:40;98705.56;;;17.97;84.48
41800;BME280;27468;47.460;19.034;2022-09-27T12:15:29;98688.09;;;17.93;83.55
41800;BME280;27468;47.460;19.034;2022-09-27T12:18:25;98731.94;;;18.24;83.20
41800;BME280;27468;47.460;19.034;2022-09-27T12:20:52;98704.75;;;18.08;83.20
41800;BME280;27468;47.460;19.034;2022-09-27T12:23:46;98725.72;;;18.12;82.29
41800;BME280;27468;47.460;19.034;2022-09-27T12:26:27;98725.50;;;18.15;82.61
41800;BME280;27468;47.460;19.034;2022-09-27T12:28:57;98623.50;;;17.67;82.40
41800;BME280;27468;47.460;19.034;2022-09-27T12:31:36;98644.84;;;17.78;82.17
41800;BME280;27468;47.460;19.034;2022-09-27T12:34:21;98720.03;;;18.17;82.11
41800;BME280;27468;47.460;19.034;2022-09-27T12:37:02;98718.56;;;18.02;82.71
41800;BME280;27468;47.460;19.034;2022-09-27T12:39:40;98696.72;;;17.86;82.85
41800;BME280;27468;47.460;19.034;2022-09-27T12:42:23;98723.16;;;17.89;83.31
41800;BME280;27468;47.460;19.034;2022-09-27T12:44:50;98686.72;;;17.65;85.60
41800;BME280;27468;47.460;19.034;2022-09-27T12:52:49;98684.31;;;18.42;88.12
41800;BME280;27468;47.460;19.034;2022-09-27T13:00:45;98640.66;;;18.43;86.48
41800;BME280;27468;47.460;19.034;2022-09-27T13:06:37;98651.66;;;18.83;85.65
41800;BME280;27468;47.460;19.034;2022-09-27T13:09:41;98689.38;;;19.01;85.01
41800;BME280;27468;47.460;19.034;2022-09-27T13:12:13;98651.44;;;18.75;84.64
41800;BME280;27468;47.460;19.034;2022-09-27T13:15:03;98649.47;;;18.77;83.40
41800;BME280;27468;47.460;19.034;2022-09-27T13:22:51;98631.13;;;18.95;81.03
41800;BME280;27468;47.460;19.034;2022-09-27T13:25:49;98669.66;;;19.13;80.65
41800;BME280;27468;47.460;19.034;2022-09-27T13:31:07;98627.38;;;18.86;80.11
41800;BME280;27468;47.460;19.034;2022-09-27T13:33:52;98671.59;;;19.11;80.37
41800;BME280;27468;47.460;19.034;2022-09-27T13:36:30;98670.97;;;19.19;80.40
41800;BME280;27468;47.460;19.034;2022-09-27T13:46:50;98634.06;;;19.12;78.77
41800;BME280;27468;47.460;19.034;2022-09-27T13:49:35;98656.59;;;19.31;78.55
41800;BME280;27468;47.460;19.034;2022-09-27T13:52:18;98609.66;;;19.17;78.42
41800;BME280;27468;47.460;19.034;2022-09-27T13:54:56;98637.31;;;19.27;77.60
41800;BME280;27468;47.460;19.034;2022-09-27T13:57:54;98653.94;;;19.31;77.40
41800;BME280;27468;47.460;19.034;2022-09-27T14:00:24;98620.78;;;19.01;77.46
41800;BME280;27468;47.460;19.034;2022-09-27T14:05:31;98623.84;;;18.97;77.88
41800;BME280;27468;47.460;19.034;2022-09-27T14:08:00;98615.13;;;18.84;77.98
41800;BME280;27468;47.460;19.034;2022-09-27T14:10:28;98692.91;;;19.01;79.11
41800;BME280;27468;47.460;19.034;2022-09-27T14:12:54;98694.75;;;18.67;74.26
41800;BME280;27468;47.460;19.034;2022-09-27T14:15:29;98670.94;;;18.08;85.18
41800;BME280;27468;47.460;19.034;2022-09-27T14:17:56;98717.16;;;17.74;89.07
41800;BME280;27468;47.460;19.034;2022-09-27T14:22:57;98737.38;;;17.05;93.65
41800;BME280;27468;47.460;19.034;2022-09-27T14:25:22;98671.38;;;16.48;94.92
41800;BME280;27468;47.460;19.034;2022-09-27T14:27:49;98698.91;;;16.60;95.20
41800;BME280;27468;47.460;19.034;2022-09-27T14:30:18;98692.97;;;16.43;97.19
41800;BME280;27468;47.460;19.034;2022-09-27T14:32:49;98678.72;;;16.32;96.64
41800;BME280;27468;47.460;19.034;2022-09-27T14:35:25;98724.88;;;16.43;96.87
41800;BME280;27468;47.460;19.034;2022-09-27T14:38:13;98714.38;;;16.16;97.69
41800;BME280;27468;47.460;19.034;2022-09-27T14:40:57;98709.06;;;16.04;96.11
41800;BME280;27468;47.460;19.034;2022-09-27T14:43:23;98730.41;;;15.90;97.08
41800;BME280;27468;47.460;19.034;2022-09-27T14:45:52;98721.13;;;15.82;96.34
41800;BME280;27468;47.460;19.034;2022-09-27T14:48:29;98742.44;;;15.95;97.13
41800;BME280;27468;47.460;19.034;2022-09-27T14:51:01;98751.47;;;15.93;97.57
41800;BME280;27468;47.460;19.034;2022-09-27T14:53:33;98739.84;;;15.81;98.72
41800;BME280;27468;47.460;19.034;2022-09-27T14:56:00;98752.06;;;15.83;98.35
41800;BME280;27468;47.460;19.034;2022-09-27T14:58:27;98754.09;;;15.80;97.54
41800;BME280;27468;47.460;19.034;2022-09-27T15:00:54;98750.16;;;15.85;97.77
41800;BME280;27468;47.460;19.034;2022-09-27T15:03:30;98739.63;;;15.84;98.03
41800;BME280;27468;47.460;19.034;2022-09-27T15:05:58;98742.44;;;15.95;98.09
41800;BME280;27468;47.460;19.034;2022-09-27T15:08:27;98712.63;;;15.77;96.67
41800;BME280;27468;47.460;19.034;2022-09-27T15:10:58;98753.28;;;15.92;96.34
41800;BME280;27468;47.460;19.034;2022-09-27T15:13:24;98711.91;;;15.48;94.89
41800;BME280;27468;47.460;19.034;2022-09-27T15:15:51;98766.63;;;15.51;93.80
41800;BME280;27468;47.460;19.034;2022-09-27T15:20:56;98764.97;;;15.36;94.15
41800;BME280;27468;47.460;19.034;2022-09-27T15:23:33;98765.75;;;15.24;90.52
41800;BME280;27468;47.460;19.034;2022-09-27T15:28:34;98737.50;;;14.96;85.54
41800;BME280;27468;47.460;19.034;2022-09-27T15:31:02;98763.94;;;14.97;86.73